Time;durP1;ratioP1;P1;durP2;ratioP2;P2;SDS_P1;SDS_P2;PMS_P1;PMS_P2;Temp;Humidity;BMP_temperature;BMP_pressure;BME280_temperature;BME280_humidity;BME280_pressure;Samples;Min_cycle;Max_cycle;Signal;HPM_P1;HPM_P2
2022/05/05 00:01:52;;;;;;;3.53;3.23;;;;;;;14.31;74.50;99001.63;5134607;27;38668;-79
2022/05/05 00:04:22;;;;;;;4.07;3.63;;;;;;;14.27;74.38;98999.31;5133718;27;41844;-80
2022/05/05 00:06:49;;;;;;;3.23;2.93;;;;;;;14.28;74.77;98996.53;5117130;27;42025;-80
2022/05/05 00:09:17;;;;;;;3.10;2.83;;;;;;;14.24;74.38;98991.53;5105657;28;41207;-79
2022/05/05 00:14:31;;;;;;;3.40;3.10;;;;;;;14.16;74.58;98976.16;5112159;28;41988;-80
2022/05/05 00:17:02;;;;;;;4.23;3.83;;;;;;;14.26;75.08;98989.59;5112456;28;41405;-80
2022/05/05 00:19:32;;;;;;;4.20;3.73;;;;;;;14.23;75.60;98992.50;5113260;28;41212;-80
2022/05/05 00:22:00;;;;;;;3.47;3.17;;;;;;;14.07;75.52;98970.66;5113635;28;39925;-80
2022/05/05 00:24:28;;;;;;;3.27;2.93;;;;;;;14.22;75.16;98988.13;5127547;27;41512;-80
2022/05/05 00:26:56;;;;;;;3.60;3.23;;;;;;;14.22;75.26;98988.13;5135232;27;42864;-80
2022/05/05 00:29:24;;;;;;;4.13;3.77;;;;;;;14.19;75.52;98991.06;5116585;27;41099;-79
2022/05/05 00:31:52;;;;;;;3.47;3.17;;;;;;;14.09;75.34;98966.06;5135153;27;39845;-80
2022/05/05 00:34:21;;;;;;;4.37;3.50;;;;;;;14.20;75.65;98982.94;5119593;27;42743;-80
2022/05/05 00:36:48;;;;;;;4.27;3.53;;;;;;;14.22;75.50;98980.13;5110605;27;42530;-80
2022/05/05 00:39:16;;;;;;;3.50;3.20;;;;;;;14.21;75.01;98978.47;5116111;27;41222;-80
2022/05/05 00:41:46;;;;;;;3.60;2.73;;;;;;;14.22;74.89;98991.66;5133265;27;40018;-79
2022/05/05 00:44:14;;;;;;;3.00;2.70;;;;;;;14.21;75.00;98989.13;5116384;27;41046;-79
2022/05/05 00:46:47;;;;;;;2.87;2.67;;;;;;;14.09;74.91;98969.59;5133668;27;42595;-79
2022/05/05 00:49:15;;;;;;;3.27;2.97;;;;;;;14.20;74.89;98990.09;5131640;27;42182;-79
2022/05/05 00:51:44;;;;;;;3.17;2.87;;;;;;;14.07;74.84;98965.34;5133978;27;40176;-79
2022/05/05 00:54:12;;;;;;;2.97;2.77;;;;;;;14.12;74.95;98979.13;5133374;27;41847;-79
2022/05/05 00:56:44;;;;;;;4.03;3.63;;;;;;;14.06;74.94;98979.63;5134348;27;20230;-79
2022/05/05 00:59:12;;;;;;;3.20;2.90;;;;;;;14.14;74.95;98988.72;5131398;27;41415;-80
2022/05/05 01:01:41;;;;;;;3.20;2.90;;;;;;;14.07;75.51;98976.84;5095399;28;39955;-80
2022/05/05 01:04:08;;;;;;;6.20;3.10;;;;;;;14.11;75.38;98986.28;5113660;28;41925;-79
2022/05/05 01:06:37;;;;;;;3.73;3.40;;;;;;;14.10;75.41;98981.06;5112959;28;42830;-80
2022/05/05 01:09:06;;;;;;;3.57;3.27;;;;;;;14.03;75.24;98976.22;5128785;27;42327;-80
2022/05/05 01:11:34;;;;;;;3.33;3.03;;;;;;;14.03;75.04;98980.69;5132809;27;39876;-80
2022/05/05 01:14:02;;;;;;;3.37;3.07;;;;;;;13.91;75.30;98969.13;5132386;27;41807;-79
2022/05/05 01:16:31;;;;;;;3.57;3.27;;;;;;;14.05;75.32;98993.88;5116177;27;41720;-80
2022/05/05 01:18:59;;;;;;;3.37;3.00;;;;;;;14.03;75.35;98994.84;5115913;27;41265;-79
2022/05/05 01:21:27;;;;;;;3.20;2.90;;;;;;;14.01;75.53;98988.78;5133433;27;41154;-80
2022/05/05 01:23:55;;;;;;;4.00;3.60;;;;;;;14.00;75.65;98994.22;5132675;27;42674;-80
2022/05/05 01:29:07;;;;;;;4.43;3.90;;;;;;;13.94;75.68;98992.88;5114714;27;42651;-79
2022/05/05 01:31:35;;;;;;;4.53;4.10;;;;;;;13.93;76.34;98991.19;5115799;27;39973;-79
2022/05/05 01:34:03;;;;;;;5.93;4.63;;;;;;;13.94;76.08;99002.69;5115566;27;40339;-80
2022/05/05 01:36:32;;;;;;;3.90;3.60;;;;;;;13.84;76.36;98983.88;5115846;27;41838;-80
2022/05/05 01:39:00;;;;;;;4.40;4.00;;;;;;;13.93;76.36;99001.81;5115454;27;41169;-80
2022/05/05 01:41:27;;;;;;;3.60;3.30;;;;;;;13.93;76.16;98999.16;5132515;27;40802;-80
2022/05/05 01:43:55;;;;;;;4.63;4.20;;;;;;;13.94;76.17;98995.53;5130420;27;41582;-80
2022/05/05 01:46:22;;;;;;;4.13;3.67;;;;;;;13.92;76.07;99002.78;5128241;27;42550;-80
2022/05/05 01:48:50;;;;;;;4.47;3.87;;;;;;;13.93;76.21;99001.81;5111673;27;42092;-80
2022/05/05 01:51:17;;;;;;;3.77;3.47;;;;;;;13.87;76.10;98991.63;5095630;28;40065;-80
2022/05/05 01:53:46;;;;;;;3.87;3.57;;;;;;;13.93;75.77;98996.50;5112132;28;42643;-80
2022/05/05 01:56:14;;;;;;;4.87;3.67;;;;;;;13.82;76.14;98983.13;5111844;28;43427;-80
2022/05/05 01:58:44;;;;;;;3.77;3.23;;;;;;;13.91;75.84;98998.41;5110857;28;42521;-79
2022/05/05 02:01:12;;;;;;;3.30;3.00;;;;;;;13.88;75.93;99001.31;5094421;28;38751;-80
2022/05/05 02:03:40;;;;;;;4.23;3.20;;;;;;;13.86;75.76;98994.38;5111925;28;42719;-79
2022/05/05 02:06:08;;;;;;;4.07;3.47;;;;;;;13.82;75.91;98988.47;5129004;27;43617;-80
2022/05/05 02:08:37;;;;;;;3.27;2.97;;;;;;;13.90;75.63;98999.38;5132375;27;41396;-80
2022/05/05 02:11:06;;;;;;;3.60;3.30;;;;;;;13.89;75.96;98999.50;5132688;27;40028;-80
2022/05/05 02:13:33;;;;;;;3.13;2.40;;;;;;;13.86;75.71;99000.56;5114955;27;41949;-79
2022/05/05 02:16:01;;;;;;;3.30;3.00;;;;;;;13.87;75.46;98996.94;5115319;27;41822;-79
2022/05/05 02:18:29;;;;;;;3.33;3.03;;;;;;;13.87;75.66;99006.75;5113536;27;42277;-80
2022/05/05 02:20:56;;;;;;;3.43;3.13;;;;;;;13.87;75.41;99007.59;5112243;28;40934;-79
2022/05/05 02:23:24;;;;;;;4.77;3.47;;;;;;;13.86;75.36;99005.88;5098598;27;40668;-79
2022/05/05 02:25:52;;;;;;;3.87;3.50;;;;;;;13.84;75.42;99002.50;5111764;28;42823;-80
2022/05/05 02:28:21;;;;;;;3.60;3.30;;;;;;;13.83;75.43;99006.13;5112255;27;43018;-81
2022/05/05 02:30:49;;;;;;;3.60;3.30;;;;;;;13.62;75.71;98970.44;5111146;28;40688;-80
2022/05/05 02:33:16;;;;;;;3.60;3.30;;;;;;;13.71;75.77;98980.41;5112519;28;41715;-79
2022/05/05 02:35:44;;;;;;;3.50;3.20;;;;;;;13.80;75.64;98997.50;5104412;27;41619;-80
2022/05/05 02:40:56;;;;;;;3.50;3.20;;;;;;;13.80;75.79;99001.03;5074265;28;40144;-80
2022/05/05 02:43:26;;;;;;;3.60;3.30;;;;;;;13.79;75.54;98994.00;5073785;28;40815;-80
2022/05/05 02:45:53;;;;;;;3.53;3.03;;;;;;;13.78;75.57;98992.31;5091252;28;41772;-79
2022/05/05 02:48:21;;;;;;;3.37;3.07;;;;;;;13.72;75.51;98992.75;5118248;27;42377;-79
2022/05/05 02:50:49;;;;;;;3.30;3.00;;;;;;;13.67;75.36;98978.94;5132280;27;39946;-79
2022/05/05 02:56:01;;;;;;;3.53;3.23;;;;;;;13.72;75.63;98997.25;5132548;27;41848;-79
2022/05/05 02:58:31;;;;;;;3.47;3.17;;;;;;;13.70;75.48;98994.69;5131703;27;41072;-80
2022/05/05 03:00:58;;;;;;;2.93;2.60;;;;;;;13.61;75.46;98982.03;5097953;27;40138;-80
2022/05/05 03:03:26;;;;;;;3.57;3.27;;;;;;;13.55;75.51;98969.19;5131639;27;42139;-79
2022/05/05 03:05:54;;;;;;;3.20;2.93;;;;;;;13.61;75.71;98984.69;5114830;27;41894;-80
2022/05/05 03:08:21;;;;;;;2.80;2.50;;;;;;;13.54;75.48;98970.13;5131085;27;42109;-80
2022/05/05 03:10:49;;;;;;;3.10;2.80;;;;;;;13.62;75.76;98997.03;5114851;27;39093;-80
2022/05/05 03:13:17;;;;;;;3.20;2.80;;;;;;;13.49;75.39;98980.25;5135144;27;40798;-79
2022/05/05 03:15:46;;;;;;;3.20;2.90;;;;;;;13.48;75.67;98983.88;5129486;27;43074;-80
2022/05/05 03:18:13;;;;;;;3.07;2.33;;;;;;;13.56;75.35;98997.50;5097453;28;42382;-80
2022/05/05 03:20:41;;;;;;;2.93;2.73;;;;;;;13.54;75.57;99005.59;5115764;28;40856;-80
2022/05/05 03:23:09;;;;;;;3.97;3.20;;;;;;;13.53;75.32;99003.88;5097633;28;40740;-80
2022/05/05 03:25:37;;;;;;;3.23;2.93;;;;;;;13.51;75.29;98994.31;5114393;28;41824;-80
2022/05/05 03:28:06;;;;;;;2.57;2.37;;;;;;;13.50;75.62;98998.78;5114789;28;42181;-80
2022/05/05 03:30:33;;;;;;;3.77;2.90;;;;;;;13.48;75.94;98999.84;5113889;28;40052;-80
2022/05/05 03:33:02;;;;;;;5.20;4.70;;;;;;;13.45;76.03;98994.75;5114478;27;41976;-80
2022/05/05 03:35:29;;;;;;;3.73;3.40;;;;;;;13.44;75.98;98998.38;5119610;27;43575;-79
2022/05/05 03:37:57;;;;;;;3.87;3.47;;;;;;;13.38;76.15;98993.47;5135026;27;42415;-80
2022/05/05 03:40:25;;;;;;;4.20;3.80;;;;;;;13.40;75.94;99018.16;5117423;27;39249;-80
2022/05/05 03:42:53;;;;;;;3.60;3.27;;;;;;;13.39;75.70;99014.66;5134716;27;40689;-79
2022/05/05 03:45:20;;;;;;;3.40;3.10;;;;;;;13.35;75.94;98999.03;5135672;27;42896;-79
2022/05/05 03:47:49;;;;;;;3.67;3.10;;;;;;;13.37;75.99;99013.06;5117491;27;42297;-80
2022/05/05 03:50:18;;;;;;;3.70;3.13;;;;;;;13.38;76.09;99009.44;5134437;27;40944;-80
2022/05/05 03:52:46;;;;;;;3.93;3.53;;;;;;;13.39;76.76;99016.47;5117646;27;42085;-80
2022/05/05 03:55:13;;;;;;;3.63;3.33;;;;;;;13.40;76.77;99015.50;5124354;27;42020;-80
2022/05/05 03:57:42;;;;;;;5.30;4.30;;;;;;;13.39;76.57;99021.78;5114948;28;42287;-79
2022/05/05 04:00:10;;;;;;;4.07;3.77;;;;;;;13.41;76.62;99010.09;5113325;28;39298;-80
2022/05/05 04:02:41;;;;;;;3.97;3.50;;;;;;;13.45;76.34;99018.72;5114022;28;41183;-80
2022/05/05 04:05:09;;;;;;;4.17;3.83;;;;;;;13.38;76.38;99004.13;5097011;28;41966;-80
2022/05/05 04:07:38;;;;;;;5.50;4.73;;;;;;;13.48;76.72;99026.44;5108513;27;40859;-80
2022/05/05 04:10:07;;;;;;;4.20;3.80;;;;;;;13.37;76.51;99013.06;5116625;27;38833;-80
2022/05/05 04:12:35;;;;;;;4.53;4.00;;;;;;;13.51;76.21;99036.88;5116521;27;40640;-79
2022/05/05 04:15:03;;;;;;;4.23;3.80;;;;;;;13.49;75.98;99041.44;5132221;27;42389;-80
2022/05/05 04:17:30;;;;;;;4.00;3.60;;;;;;;13.44;76.15;99038.28;5097918;28;41308;-80
2022/05/05 04:19:58;;;;;;;3.53;3.23;;;;;;;13.40;76.00;99034.97;5091716;28;40915;-79
2022/05/05 04:22:26;;;;;;;4.33;3.90;;;;;;;13.43;76.28;99039.25;5095707;28;41749;-80
2022/05/05 04:24:55;;;;;;;3.53;3.20;;;;;;;13.55;76.31;99059.66;5123132;27;42839;-79
2022/05/05 04:27:23;;;;;;;3.93;3.53;;;;;;;13.57;76.28;99063.06;5133938;27;42258;-79
2022/05/05 04:29:51;;;;;;;5.17;3.67;;;;;;;13.56;76.18;99066.69;5135282;27;39858;-80
2022/05/05 04:32:19;;;;;;;4.07;3.67;;;;;;;13.61;76.18;99069.84;5133868;27;42010;-80
2022/05/05 04:34:47;;;;;;;4.10;3.70;;;;;;;13.54;76.00;99058.81;5110489;27;42125;-80
2022/05/05 04:37:15;;;;;;;3.50;3.20;;;;;;;13.67;75.86;99074.75;5133224;27;43274;-80
2022/05/05 04:39:43;;;;;;;3.70;3.40;;;;;;;13.66;75.70;99067.72;5116535;27;38874;-79
2022/05/05 04:42:12;;;;;;;3.47;3.17;;;;;;;13.76;76.04;99084.72;5114382;27;40766;-80
2022/05/05 04:44:40;;;;;;;3.87;3.37;;;;;;;13.81;75.67;99082.59;5115222;27;42035;-80
2022/05/05 04:47:07;;;;;;;3.40;2.90;;;;;;;13.85;75.95;99089.38;5096161;28;42328;-79
2022/05/05 04:49:35;;;;;;;3.63;3.33;;;;;;;13.92;75.64;99093.31;5113040;27;40300;-80
2022/05/05 04:52:03;;;;;;;3.70;3.37;;;;;;;13.98;75.72;99087.53;5112089;28;40935;-80
2022/05/05 04:54:31;;;;;;;4.80;4.20;;;;;;;13.92;75.43;99074.69;5113072;27;42815;-80
2022/05/05 04:57:00;;;;;;;4.23;3.83;;;;;;;14.12;75.51;99101.66;5133858;27;43342;-80
2022/05/05 04:59:29;;;;;;;4.53;3.60;;;;;;;14.19;75.49;99108.25;5132648;27;40348;-79
2022/05/05 05:01:57;;;;;;;4.37;3.97;;;;;;;14.22;75.94;99103.53;5134629;27;41855;-80
2022/05/05 05:04:24;;;;;;;6.93;6.23;;;;;;;14.28;75.84;99097.75;5133471;27;42791;-80
2022/05/05 05:06:52;;;;;;;5.50;5.00;;;;;;;14.33;76.28;99105.44;5133366;27;42587;-80
2022/05/05 05:09:20;;;;;;;4.67;4.27;;;;;;;14.35;76.09;99108.81;5133322;27;40854;-80
2022/05/05 05:11:48;;;;;;;4.47;4.07;;;;;;;14.42;76.51;99111.91;5133843;27;41709;-79
2022/05/05 05:14:15;;;;;;;5.20;4.70;;;;;;;14.48;76.52;99114.97;5116370;27;41705;-80
2022/05/05 05:16:45;;;;;;;5.27;4.77;;;;;;;14.41;76.24;99096.88;5133424;27;42393;-79
2022/05/05 05:19:12;;;;;;;4.90;4.50;;;;;;;14.36;75.77;99082.03;5115926;27;39984;-80
2022/05/05 05:21:40;;;;;;;5.30;4.77;;;;;;;14.57;76.17;99103.63;5133703;27;41709;-80
2022/05/05 05:24:08;;;;;;;5.63;4.67;;;;;;;14.59;75.77;99096.34;5133049;27;41682;-80
2022/05/05 05:26:36;;;;;;;4.43;4.03;;;;;;;14.73;76.10;99114.81;5133398;27;42870;-80
2022/05/05 05:29:03;;;;;;;5.33;4.83;;;;;;;14.78;76.09;99110.97;5110211;28;38935;-80
2022/05/05 05:31:32;;;;;;;5.27;4.77;;;;;;;14.87;76.03;99123.59;5112544;28;42649;-79
2022/05/05 05:34:01;;;;;;;4.97;4.47;;;;;;;14.89;76.11;99124.34;5111798;27;43752;-79
2022/05/05 05:36:29;;;;;;;5.60;5.10;;;;;;;14.78;75.96;99102.97;5095369;28;41271;-80
2022/05/05 05:38:56;;;;;;;8.03;5.80;;;;;;;14.91;75.73;99117.94;5111419;28;40410;-79
2022/05/05 05:41:24;;;;;;;5.33;4.83;;;;;;;14.86;75.71;99113.91;5112966;28;41627;-80
2022/05/05 05:43:52;;;;;;;5.27;4.57;;;;;;;14.95;75.49;99118.56;5111258;28;42607;-80
2022/05/05 05:46:20;;;;;;;6.40;5.80;;;;;;;14.84;75.79;99106.00;5095618;28;41543;-80
2022/05/05 05:48:47;;;;;;;5.87;4.47;;;;;;;14.90;75.52;99115.38;5095079;28;40108;-80
2022/05/05 05:51:16;;;;;;;6.07;5.47;;;;;;;14.91;75.87;99122.41;5112160;28;41448;-80
2022/05/05 05:53:44;;;;;;;5.43;4.87;;;;;;;14.74;75.64;99100.53;5101557;28;43077;-81
2022/05/05 05:56:12;;;;;;;6.60;5.93;;;;;;;14.90;76.04;99126.03;5114654;28;41546;-81
2022/05/05 05:58:40;;;;;;;7.13;5.30;;;;;;;14.91;76.13;99128.59;5132291;28;40923;-80
2022/05/05 06:01:07;;;;;;;6.27;5.47;;;;;;;14.85;75.84;99113.03;5131328;28;41781;-79
2022/05/05 06:06:21;;;;;;;5.97;5.37;;;;;;;15.30;75.65;99134.50;5091659;28;42694;-80
2022/05/05 06:08:49;;;;;;;7.33;6.60;;;;;;;15.56;75.03;99140.53;5092441;28;39011;-81
2022/05/05 06:11:19;;;;;;;7.43;6.73;;;;;;;15.75;74.77;99135.41;5090514;28;40861;-80
2022/05/05 06:13:47;;;;;;;7.00;6.30;;;;;;;16.13;74.07;99146.56;5091047;28;41839;-80
2022/05/05 06:16:15;;;;;;;7.57;6.87;;;;;;;16.09;73.26;99101.50;5091577;28;42335;-80
2022/05/05 06:18:42;;;;;;;8.10;7.30;;;;;;;16.67;72.43;99156.44;5095011;28;38995;-80
2022/05/05 06:21:10;;;;;;;6.23;5.63;;;;;;;16.78;71.85;99148.38;5111426;28;43061;-80
2022/05/05 06:23:41;;;;;;;7.53;6.77;;;;;;;16.97;71.29;99163.72;5111628;28;43063;-80
2022/05/05 06:26:08;;;;;;;6.83;6.07;;;;;;;16.97;71.13;99152.16;5094359;28;41454;-80
2022/05/05 06:28:36;;;;;;;7.87;7.10;;;;;;;17.13;70.45;99139.19;5110274;28;40007;-80
2022/05/05 06:31:05;;;;;;;6.27;5.67;;;;;;;17.53;69.70;99166.94;5091156;28;41688;-80
2022/05/05 06:33:33;;;;;;;6.20;5.60;;;;;;;17.89;68.98;99172.81;5090763;28;42035;-80
2022/05/05 06:36:00;;;;;;;6.23;5.63;;;;;;;18.21;68.23;99168.13;5091229;28;43245;-81
2022/05/05 06:38:28;;;;;;;6.57;5.97;;;;;;;18.31;67.03;99152.91;5092231;28;39928;-80
2022/05/05 06:40:58;;;;;;;5.77;5.27;;;;;;;18.60;66.78;99173.59;5090765;28;40490;-81
2022/05/05 06:43:25;;;;;;;7.23;6.53;;;;;;;18.74;66.43;99165.16;5093731;28;41697;-81
2022/05/05 06:45:53;;;;;;;6.40;5.80;;;;;;;18.96;65.92;99175.63;5105112;28;42295;-80
2022/05/05 06:48:21;;;;;;;6.00;5.50;;;;;;;19.12;64.69;99179.56;5095456;28;40896;-80
2022/05/05 06:50:49;;;;;;;7.23;6.53;;;;;;;19.20;64.18;99179.69;5077410;28;41919;-80
2022/05/05 06:53:16;;;;;;;6.70;6.00;;;;;;;19.29;64.42;99176.16;5077313;28;43352;-80
2022/05/05 06:55:44;;;;;;;6.30;5.70;;;;;;;19.35;64.11;99175.59;5094540;28;42438;-80
2022/05/05 06:58:13;;;;;;;6.23;5.63;;;;;;;19.35;64.20;99164.84;5090371;28;39253;-81
2022/05/05 07:03:26;;;;;;;6.97;6.37;;;;;;;19.56;62.54;99197.78;5097418;28;41891;-80
2022/05/05 07:05:54;;;;;;;7.67;5.90;;;;;;;19.66;62.58;99184.31;5114845;28;40861;-80
2022/05/05 07:08:22;;;;;;;6.63;6.03;;;;;;;20.09;61.39;99198.06;5114594;28;41111;-80
2022/05/05 07:10:55;;;;;;;7.23;6.53;;;;;;;20.25;61.57;99201.97;5097326;28;40587;-80
2022/05/05 07:13:25;;;;;;;5.97;5.37;;;;;;;20.28;61.02;99197.09;5097382;28;41990;-81
2022/05/05 07:15:53;;;;;;;6.00;5.50;;;;;;;20.33;60.56;99202.91;5115972;28;42241;-81
2022/05/05 07:18:21;;;;;;;5.87;5.33;;;;;;;20.40;59.55;99203.16;5114331;28;39264;-81
2022/05/05 07:20:50;;;;;;;5.87;5.37;;;;;;;20.47;58.71;99203.44;5114394;28;41723;-81
2022/05/05 07:23:17;;;;;;;4.83;4.43;;;;;;;20.63;59.25;99195.56;5115257;27;43868;-81
2022/05/05 07:25:45;;;;;;;5.23;4.80;;;;;;;20.90;59.41;99203.56;5116808;27;42178;-80
2022/05/05 07:28:15;;;;;;;6.40;5.20;;;;;;;21.24;56.29;99211.00;5097071;28;40169;-80
2022/05/05 07:30:44;;;;;;;5.53;5.03;;;;;;;21.65;55.90;99221.09;5097262;28;40683;-81
2022/05/05 07:33:12;;;;;;;4.80;4.30;;;;;;;21.91;54.05;99221.13;5093588;28;42901;-81
2022/05/05 07:35:40;;;;;;;4.23;3.83;;;;;;;22.06;53.75;99202.53;5114094;28;43104;-81
2022/05/05 07:38:07;;;;;;;5.43;4.93;;;;;;;22.57;52.36;99234.81;5097402;28;40958;-80
2022/05/05 07:40:35;;;;;;;4.30;3.90;;;;;;;22.91;52.10;99233.94;5115265;28;41789;-80
2022/05/05 07:43:03;;;;;;;5.30;4.63;;;;;;;23.12;49.33;99255.13;5114064;28;42959;-81
2022/05/05 07:45:30;;;;;;;5.83;4.50;;;;;;;23.10;50.09;99252.56;5109420;28;43280;-81
2022/05/05 07:48:01;;;;;;;4.93;4.43;;;;;;;22.94;48.99;99249.81;5093949;28;40967;-81
2022/05/05 07:50:29;;;;;;;5.37;4.13;;;;;;;23.12;49.39;99253.22;5094453;28;42645;-81
2022/05/05 07:52:56;;;;;;;4.83;4.37;;;;;;;23.33;48.92;99257.31;5076718;28;42765;-81
2022/05/05 07:55:24;;;;;;;5.80;4.20;;;;;;;23.34;47.43;99237.41;5077170;28;40952;-81
2022/05/05 07:57:52;;;;;;;4.67;3.90;;;;;;;24.19;49.14;99249.53;5095383;28;39783;-81
2022/05/05 08:00:21;;;;;;;4.80;4.40;;;;;;;25.08;48.01;99251.06;5076050;28;40615;-82
2022/05/05 08:02:48;;;;;;;4.23;3.83;;;;;;;25.78;45.10;99276.19;5099256;28;42472;-81
2022/05/05 08:05:18;;;;;;;4.60;4.10;;;;;;;26.07;44.34;99287.13;5113410;28;42709;-80
2022/05/05 08:07:49;;;;;;;3.90;3.50;;;;;;;26.24;44.96;99259.78;5097117;28;39022;-81
2022/05/05 08:10:18;;;;;;;3.50;3.20;;;;;;;26.47;44.14;99271.41;5096703;28;40699;-81
2022/05/05 08:12:46;;;;;;;4.50;3.50;;;;;;;26.38;44.26;99270.69;5110600;28;43266;-82
2022/05/05 08:15:16;;;;;;;3.67;3.37;;;;;;;26.29;42.51;99293.53;5093021;28;41142;-80
2022/05/05 08:17:44;;;;;;;5.43;3.47;;;;;;;26.24;44.10;99281.50;5076386;28;39047;-81
2022/05/05 08:20:12;;;;;;;5.10;4.63;;;;;;;26.17;43.39;99280.56;5092874;28;40458;-80
2022/05/05 08:22:42;;;;;;;4.10;3.70;;;;;;;26.25;43.87;99284.03;5104879;28;41731;-81
2022/05/05 08:30:40;;;;;;;3.97;3.67;;;;;;;25.76;43.88;99291.78;5112986;28;42467;-81
2022/05/05 08:33:08;;;;;;;4.13;3.40;;;;;;;25.52;43.93;99283.81;5113191;28;42477;-82
2022/05/05 08:35:36;;;;;;;3.23;3.03;;;;;;;25.46;44.49;99281.84;5113054;28;42461;-81
2022/05/05 08:38:05;;;;;;;3.53;3.23;;;;;;;25.55;44.49;99291.59;5113366;28;38944;-82
2022/05/05 08:40:35;;;;;;;4.97;4.50;;;;;;;25.43;43.48;99283.03;5113128;28;42031;-79
2022/05/05 08:43:05;;;;;;;4.10;3.13;;;;;;;25.62;44.33;99292.56;5113383;28;42418;-82
2022/05/05 08:45:33;;;;;;;4.17;3.87;;;;;;;25.79;44.59;99288.72;5095670;28;44026;-81
2022/05/05 08:48:01;;;;;;;4.73;4.27;;;;;;;26.32;43.70;99300.47;5113298;28;39006;-82
2022/05/05 08:50:32;;;;;;;4.20;3.90;;;;;;;26.73;42.30;99318.00;5112583;28;40732;-81
2022/05/05 08:53:02;;;;;;;4.00;3.67;;;;;;;27.18;40.01;99337.88;5111253;28;42665;-82
2022/05/05 08:55:32;;;;;;;3.70;3.40;;;;;;;27.23;40.65;99310.91;5112482;28;41035;-81
2022/05/05 08:58:02;;;;;;;6.40;4.17;;;;;;;27.60;40.40;99325.38;5114054;28;40653;-82
2022/05/05 09:00:30;;;;;;;3.33;3.03;;;;;;;27.82;40.05;99329.78;5112677;28;43441;-80
2022/05/05 09:03:00;;;;;;;3.77;3.47;;;;;;;27.74;38.04;99343.53;5095747;28;42003;-81
2022/05/05 09:05:47;;;;;;;4.90;4.23;;;;;;;27.65;38.31;99350.13;5112273;28;42385;-81
2022/05/05 09:08:26;;;;;;;4.57;4.17;;;;;;;27.86;39.60;99340.09;5109691;28;40129;-82
2022/05/05 09:10:57;;;;;;;3.77;3.47;;;;;;;27.95;39.03;99337.22;5110723;28;41822;-80
2022/05/05 09:13:27;;;;;;;3.30;3.10;;;;;;;28.00;39.48;99330.16;5095648;28;41663;-79
2022/05/05 09:15:56;;;;;;;4.80;4.40;;;;;;;27.88;37.81;99331.72;5095505;28;43357;-80
2022/05/05 09:18:26;;;;;;;3.80;3.50;;;;;;;27.98;38.51;99334.97;5113576;27;41146;-81
2022/05/05 09:20:54;;;;;;;4.23;3.83;;;;;;;28.15;37.94;99320.03;5113039;28;42799;-82
2022/05/05 09:23:32;;;;;;;4.00;3.70;;;;;;;28.22;39.10;99320.94;5112127;28;42536;-81
2022/05/05 09:26:04;;;;;;;4.53;4.13;;;;;;;28.92;38.36;99313.69;5095825;28;42278;-82
2022/05/05 09:28:35;;;;;;;6.10;4.60;;;;;;;29.35;35.10;99344.28;5110768;28;39817;-82
2022/05/05 09:31:06;;;;;;;4.90;4.30;;;;;;;29.44;36.31;99329.44;5084447;28;43119;-81
2022/05/05 09:33:43;;;;;;;4.40;3.97;;;;;;;29.44;35.82;99328.59;5092006;28;41980;-83
2022/05/05 09:36:13;;;;;;;3.50;3.20;;;;;;;29.67;35.68;99321.72;5092145;28;41422;-80
2022/05/05 09:38:51;;;;;;;3.30;3.00;;;;;;;30.12;34.40;99343.88;5093844;27;40259;-82
2022/05/05 09:41:21;;;;;;;4.10;3.63;;;;;;;30.18;33.49;99353.09;5091166;28;40814;-80
2022/05/05 09:43:49;;;;;;;3.97;3.50;;;;;;;29.95;33.18;99358.94;5074556;28;43207;-80
2022/05/05 09:46:34;;;;;;;3.23;2.90;;;;;;;29.57;34.60;99345.84;5101429;28;41339;-80
2022/05/05 09:49:11;;;;;;;3.27;2.97;;;;;;;30.10;33.72;99351.41;5110343;28;40030;-80
2022/05/05 09:51:42;;;;;;;2.90;2.70;;;;;;;30.77;32.50;99358.56;5095157;28;40803;-81
2022/05/05 09:59:48;;;;;;;3.70;3.40;;;;;;;29.80;34.49;99341.88;5074286;28;39673;-83
2022/05/05 10:04:00;;;;;;;3.60;3.30;;;;;;;29.67;34.80;99344.63;5108811;28;42521;-80
2022/05/05 10:05:17;;;;;;;3.23;3.00;;;;;;;29.16;35.06;99347.78;5111817;28;43048;-82
2022/05/05 10:07:48;;;;;;;3.87;3.57;;;;;;;28.89;36.41;99328.56;5095538;28;42414;-80
2022/05/05 10:10:17;;;;;;;2.83;2.60;;;;;;;28.93;36.25;99354.38;5092050;28;40988;-82
2022/05/05 10:12:47;;;;;;;3.30;2.97;;;;;;;28.82;34.69;99363.09;5074657;28;41558;-81
2022/05/05 10:15:15;;;;;;;2.53;2.33;;;;;;;29.11;34.97;99339.34;5098831;28;45280;-80
2022/05/05 10:17:43;;;;;;;3.27;2.80;;;;;;;29.68;34.78;99352.59;5111590;28;41162;-81
2022/05/05 10:20:14;;;;;;;3.10;2.70;;;;;;;29.72;34.79;99331.16;5111510;27;41601;-81
2022/05/05 10:22:51;;;;;;;3.60;3.30;;;;;;;30.15;33.13;99348.06;5098285;28;41910;-82
2022/05/05 10:25:26;;;;;;;2.30;2.20;;;;;;;30.43;33.48;99347.84;5108823;28;42943;-82
2022/05/05 10:27:56;;;;;;;3.60;2.60;;;;;;;31.26;32.14;99363.50;5091700;28;43150;-81
2022/05/05 10:30:42;;;;;;;3.80;3.27;;;;;;;31.87;31.14;99367.63;5094781;28;40877;-81
2022/05/05 10:33:11;;;;;;;3.33;3.13;;;;;;;31.26;29.98;99373.59;5077651;28;42253;-80
2022/05/05 10:35:47;;;;;;;3.33;2.93;;;;;;;31.26;30.16;99379.06;5095606;28;42046;-83
2022/05/05 10:38:41;;;;;;;4.23;3.33;;;;;;;31.19;32.19;99353.59;5093553;28;42320;-81
2022/05/05 10:41:39;;;;;;;4.27;3.77;;;;;;;30.72;30.42;99366.56;5095718;28;40655;-83
2022/05/05 10:44:26;;;;;;;2.97;2.67;;;;;;;30.49;32.26;99349.72;5093873;28;40455;-83
2022/05/05 10:47:00;;;;;;;3.23;2.93;;;;;;;30.59;32.24;99344.69;5092767;28;42716;-80
2022/05/05 10:49:49;;;;;;;2.60;2.33;;;;;;;30.07;33.30;99312.75;5082324;28;41177;-82
2022/05/05 10:52:32;;;;;;;2.70;2.50;;;;;;;31.14;32.92;99351.53;5077767;28;41744;-80
2022/05/05 10:55:26;;;;;;;2.97;2.77;;;;;;;32.54;31.37;99344.09;5077232;28;40914;-80
2022/05/05 10:57:54;;;;;;;3.47;2.83;;;;;;;33.51;28.59;99363.28;5094260;28;42237;-81
2022/05/05 11:00:24;;;;;;;2.93;2.73;;;;;;;33.73;28.96;99371.88;5093380;28;41080;-81
2022/05/05 11:03:19;;;;;;;2.90;2.70;;;;;;;32.94;29.62;99361.88;5095212;28;41865;-81
2022/05/05 11:05:46;;;;;;;2.70;2.20;;;;;;;32.00;30.10;99365.63;5077320;28;40685;-79
2022/05/05 11:08:32;;;;;;;2.30;2.20;;;;;;;31.43;31.83;99347.38;5093917;28;43504;-80
2022/05/05 11:13:45;;;;;;;2.73;2.53;;;;;;;32.19;31.32;99344.63;5093851;28;40912;-80
2022/05/05 11:22:13;;;;;;;3.73;2.63;;;;;;;32.32;28.87;99355.50;5093632;28;42220;-81
2022/05/05 11:24:44;;;;;;;2.90;2.70;;;;;;;32.13;29.02;99357.31;5093593;28;39760;-80
2022/05/05 11:27:13;;;;;;;2.80;2.60;;;;;;;32.45;30.50;99338.91;5076706;28;42134;-83
2022/05/05 11:29:41;;;;;;;2.80;2.60;;;;;;;32.85;29.36;99330.31;5093221;28;43190;-81
2022/05/05 11:32:10;;;;;;;3.40;3.10;;;;;;;33.12;29.20;99337.19;5092636;28;42104;-83
2022/05/05 11:34:40;;;;;;;4.33;3.07;;;;;;;32.36;29.48;99318.34;5076765;28;39911;-80
2022/05/05 11:37:09;;;;;;;2.97;2.77;;;;;;;31.70;30.53;99340.75;5093705;28;41728;-82
2022/05/05 11:39:37;;;;;;;3.50;3.20;;;;;;;30.99;30.94;99332.63;5093320;28;42094;-80
2022/05/05 11:42:06;;;;;;;3.50;3.17;;;;;;;30.56;31.72;99331.44;5093241;28;42504;-80
2022/05/05 11:44:36;;;;;;;3.23;2.50;;;;;;;30.26;32.25;99322.84;5093369;28;39894;-82
2022/05/05 11:47:12;;;;;;;4.17;3.37;;;;;;;30.48;30.99;99316.09;5105695;28;41584;-81
2022/05/05 11:49:43;;;;;;;3.30;2.93;;;;;;;30.94;31.17;99313.25;5076349;28;44284;-81
2022/05/05 11:52:11;;;;;;;3.77;3.47;;;;;;;32.10;30.75;99321.28;5093211;28;41403;-80
2022/05/05 11:54:39;;;;;;;3.50;3.07;;;;;;;33.63;29.16;99327.63;5094653;28;40985;-81
2022/05/05 11:57:08;;;;;;;3.03;2.83;;;;;;;35.05;26.76;99344.94;5086512;28;41235;-81
2022/05/05 12:02:25;;;;;;;3.50;3.20;;;;;;;37.28;21.85;99378.44;5107734;28;41189;-82
2022/05/05 12:04:55;;;;;;;3.90;3.60;;;;;;;35.99;22.76;99360.06;5092948;28;38903;-80
2022/05/05 12:07:24;;;;;;;4.00;3.60;;;;;;;35.40;23.85;99366.06;5101513;28;43337;-80
2022/05/05 12:09:53;;;;;;;3.17;2.87;;;;;;;34.44;26.26;99337.19;5092418;28;41790;-80
2022/05/05 12:12:23;;;;;;;3.20;2.90;;;;;;;34.76;26.39;99340.44;5075953;28;41198;-83
2022/05/05 12:14:53;;;;;;;4.30;3.90;;;;;;;36.58;24.52;99341.25;5092491;28;40792;-81
2022/05/05 12:17:25;;;;;;;3.00;2.80;;;;;;;38.01;24.01;99330.88;5101193;28;41545;-82
2022/05/05 12:19:54;;;;;;;3.50;3.20;;;;;;;38.15;23.32;99342.38;5112386;28;44358;-83
2022/05/05 12:22:28;;;;;;;3.70;3.30;;;;;;;37.66;23.54;99341.59;5096387;28;40940;-84
2022/05/05 12:24:57;;;;;;;4.20;3.90;;;;;;;37.52;22.53;99356.88;5112433;28;39856;-82